sensor_id;sensor_type;location;lat;lon;timestamp;P1;durP1;ratioP1;P2;durP2;ratioP2
17504;SDS011;8870;50.950;11.762;2023-03-14T00:04:30;0.30;;;0.30;;
17504;SDS011;8870;50.950;11.762;2023-03-14T00:09:48;0.52;;;0.30;;
17504;SDS011;8870;50.950;11.762;2023-03-14T00:15:20;1.15;;;0.30;;
17504;SDS011;8870;50.950;11.762;2023-03-14T00:20:41;1.25;;;0.40;;
17504;SDS011;8870;50.950;11.762;2023-03-14T00:26:14;0.75;;;0.30;;
17504;SDS011;8870;50.950;11.762;2023-03-14T00:31:34;0.28;;;0.28;;
17504;SDS011;8870;50.950;11.762;2023-03-14T00:37:08;0.35;;;0.30;;
17504;SDS011;8870;50.950;11.762;2023-03-14T00:42:39;0.32;;;0.20;;
17504;SDS011;8870;50.950;11.762;2023-03-14T00:47:57;0.30;;;0.30;;
17504;SDS011;8870;50.950;11.762;2023-03-14T00:53:31;0.10;;;0.10;;
17504;SDS011;8870;50.950;11.762;2023-03-14T00:58:53;0.83;;;0.30;;
17504;SDS011;8870;50.950;11.762;2023-03-14T01:04:24;0.40;;;0.30;;
17504;SDS011;8870;50.950;11.762;2023-03-14T01:09:45;0.82;;;0.22;;
17504;SDS011;8870;50.950;11.762;2023-03-14T01:15:16;0.45;;;0.28;;
17504;SDS011;8870;50.950;11.762;2023-03-14T01:20:36;0.52;;;0.30;;
17504;SDS011;8870;50.950;11.762;2023-03-14T01:26:11;0.20;;;0.20;;
17504;SDS011;8870;50.950;11.762;2023-03-14T01:31:30;0.50;;;0.30;;
17504;SDS011;8870;50.950;11.762;2023-03-14T01:37:01;0.57;;;0.30;;
17504;SDS011;8870;50.950;11.762;2023-03-14T01:42:24;0.22;;;0.22;;
17504;SDS011;8870;50.950;11.762;2023-03-14T01:47:55;1.02;;;0.30;;
17504;SDS011;8870;50.950;11.762;2023-03-14T01:53:13;0.70;;;0.20;;
17504;SDS011;8870;50.950;11.762;2023-03-14T01:58:48;0.60;;;0.30;;
17504;SDS011;8870;50.950;11.762;2023-03-14T02:04:10;0.77;;;0.37;;
17504;SDS011;8870;50.950;11.762;2023-03-14T02:09:42;1.35;;;0.30;;
17504;SDS011;8870;50.950;11.762;2023-03-14T02:15:08;0.65;;;0.25;;
17504;SDS011;8870;50.950;11.762;2023-03-14T02:20:46;1.17;;;0.45;;
17504;SDS011;8870;50.950;11.762;2023-03-14T02:26:10;1.50;;;0.50;;
17504;SDS011;8870;50.950;11.762;2023-03-14T02:31:48;1.02;;;0.38;;
17504;SDS011;8870;50.950;11.762;2023-03-14T02:37:06;0.82;;;0.40;;
17504;SDS011;8870;50.950;11.762;2023-03-14T02:42:38;0.98;;;0.40;;
17504;SDS011;8870;50.950;11.762;2023-03-14T02:48:00;1.08;;;0.40;;
17504;SDS011;8870;50.950;11.762;2023-03-14T02:53:36;1.55;;;0.47;;
17504;SDS011;8870;50.950;11.762;2023-03-14T02:58:58;0.57;;;0.40;;
17504;SDS011;8870;50.950;11.762;2023-03-14T03:04:36;1.67;;;0.40;;
17504;SDS011;8870;50.950;11.762;2023-03-14T03:09:54;2.38;;;0.60;;
17504;SDS011;8870;50.950;11.762;2023-03-14T03:15:26;1.17;;;0.40;;
17504;SDS011;8870;50.950;11.762;2023-03-14T03:20:48;2.13;;;0.60;;
17504;SDS011;8870;50.950;11.762;2023-03-14T03:26:19;1.42;;;0.43;;
17504;SDS011;8870;50.950;11.762;2023-03-14T03:31:40;1.38;;;0.60;;
17504;SDS011;8870;50.950;11.762;2023-03-14T03:37:14;0.80;;;0.50;;
17504;SDS011;8870;50.950;11.762;2023-03-14T03:42:34;1.70;;;0.50;;
17504;SDS011;8870;50.950;11.762;2023-03-14T03:48:05;5.30;;;0.80;;
17504;SDS011;8870;50.950;11.762;2023-03-14T03:53:26;1.40;;;0.60;;
17504;SDS011;8870;50.950;11.762;2023-03-14T03:59:04;1.95;;;0.60;;
17504;SDS011;8870;50.950;11.762;2023-03-14T04:04:23;4.43;;;0.90;;
17504;SDS011;8870;50.950;11.762;2023-03-14T04:09:57;2.50;;;0.70;;
17504;SDS011;8870;50.950;11.762;2023-03-14T04:15:22;2.50;;;0.80;;
17504;SDS011;8870;50.950;11.762;2023-03-14T04:20:59;2.47;;;0.80;;
17504;SDS011;8870;50.950;11.762;2023-03-14T04:26:31;3.13;;;0.90;;
17504;SDS011;8870;50.950;11.762;2023-03-14T04:32:02;3.72;;;0.85;;
17504;SDS011;8870;50.950;11.762;2023-03-14T04:37:21;2.78;;;0.88;;
17504;SDS011;8870;50.950;11.762;2023-03-14T04:42:58;2.60;;;0.70;;
17504;SDS011;8870;50.950;11.762;2023-03-14T04:48:25;2.42;;;0.80;;
17504;SDS011;8870;50.950;11.762;2023-03-14T04:53:58;1.83;;;0.75;;
17504;SDS011;8870;50.950;11.762;2023-03-14T04:59:19;1.38;;;0.60;;
17504;SDS011;8870;50.950;11.762;2023-03-14T05:05:16;2.55;;;0.80;;
17504;SDS011;8870;50.950;11.762;2023-03-14T05:10:41;2.13;;;0.80;;
17504;SDS011;8870;50.950;11.762;2023-03-14T05:16:35;2.25;;;0.70;;
17504;SDS011;8870;50.950;11.762;2023-03-14T05:22:02;3.67;;;0.80;;
17504;SDS011;8870;50.950;11.762;2023-03-14T05:27:49;1.73;;;0.65;;
17504;SDS011;8870;50.950;11.762;2023-03-14T05:33:25;1.63;;;0.60;;
17504;SDS011;8870;50.950;11.762;2023-03-14T05:39:16;2.97;;;0.98;;
17504;SDS011;8870;50.950;11.762;2023-03-14T05:44:53;1.05;;;0.50;;
17504;SDS011;8870;50.950;11.762;2023-03-14T05:50:47;1.60;;;0.68;;
17504;SDS011;8870;50.950;11.762;2023-03-14T05:56:26;2.85;;;0.68;;
17504;SDS011;8870;50.950;11.762;2023-03-14T06:02:13;1.33;;;0.50;;
17504;SDS011;8870;50.950;11.762;2023-03-14T06:07:50;1.92;;;0.60;;
17504;SDS011;8870;50.950;11.762;2023-03-14T06:13:15;3.47;;;0.60;;
17504;SDS011;8870;50.950;11.762;2023-03-14T06:18:34;3.00;;;0.60;;
17504;SDS011;8870;50.950;11.762;2023-03-14T06:24:11;1.30;;;0.60;;
17504;SDS011;8870;50.950;11.762;2023-03-14T06:29:30;1.00;;;0.40;;
17504;SDS011;8870;50.950;11.762;2023-03-14T06:35:02;1.40;;;0.50;;
17504;SDS011;8870;50.950;11.762;2023-03-14T06:40:24;1.80;;;0.60;;
17504;SDS011;8870;50.950;11.762;2023-03-14T06:45:59;1.67;;;0.50;;
17504;SDS011;8870;50.950;11.762;2023-03-14T06:51:18;1.65;;;0.50;;
17504;SDS011;8870;50.950;11.762;2023-03-14T06:56:54;1.70;;;0.50;;
17504;SDS011;8870;50.950;11.762;2023-03-14T07:02:13;1.98;;;0.50;;
17504;SDS011;8870;50.950;11.762;2023-03-14T07:08:07;2.50;;;0.50;;
17504;SDS011;8870;50.950;11.762;2023-03-14T07:13:29;0.80;;;0.40;;
17504;SDS011;8870;50.950;11.762;2023-03-14T07:19:02;1.77;;;0.57;;
17504;SDS011;8870;50.950;11.762;2023-03-14T07:24:21;2.45;;;0.52;;
17504;SDS011;8870;50.950;11.762;2023-03-14T07:29:55;0.75;;;0.30;;
17504;SDS011;8870;50.950;11.762;2023-03-14T07:35:14;1.17;;;0.45;;
17504;SDS011;8870;50.950;11.762;2023-03-14T07:40:45;0.98;;;0.40;;
17504;SDS011;8870;50.950;11.762;2023-03-14T07:46:09;1.20;;;0.57;;
17504;SDS011;8870;50.950;11.762;2023-03-14T07:51:41;1.10;;;0.40;;
17504;SDS011;8870;50.950;11.762;2023-03-14T07:57:01;0.85;;;0.40;;
17504;SDS011;8870;50.950;11.762;2023-03-14T08:02:35;1.65;;;0.40;;
17504;SDS011;8870;50.950;11.762;2023-03-14T08:08:06;2.00;;;0.65;;
17504;SDS011;8870;50.950;11.762;2023-03-14T08:13:25;1.35;;;0.50;;
17504;SDS011;8870;50.950;11.762;2023-03-14T08:18:58;1.55;;;0.47;;
17504;SDS011;8870;50.950;11.762;2023-03-14T08:24:16;0.88;;;0.30;;
17504;SDS011;8870;50.950;11.762;2023-03-14T08:29:47;0.43;;;0.20;;
17504;SDS011;8870;50.950;11.762;2023-03-14T08:35:09;1.70;;;0.30;;
17504;SDS011;8870;50.950;11.762;2023-03-14T08:40:40;0.95;;;0.40;;
17504;SDS011;8870;50.950;11.762;2023-03-14T08:45:59;1.33;;;0.60;;
17504;SDS011;8870;50.950;11.762;2023-03-14T08:51:34;1.58;;;0.40;;
17504;SDS011;8870;50.950;11.762;2023-03-14T08:56:53;1.75;;;0.30;;
17504;SDS011;8870;50.950;11.762;2023-03-14T09:02:25;1.05;;;0.40;;
17504;SDS011;8870;50.950;11.762;2023-03-14T09:07:59;0.73;;;0.30;;
17504;SDS011;8870;50.950;11.762;2023-03-14T09:13:17;1.10;;;0.30;;
17504;SDS011;8870;50.950;11.762;2023-03-14T09:18:49;1.85;;;0.28;;
17504;SDS011;8870;50.950;11.762;2023-03-14T09:24:11;0.93;;;0.30;;
17504;SDS011;8870;50.950;11.762;2023-03-14T09:29:42;1.05;;;0.30;;
17504;SDS011;8870;50.950;11.762;2023-03-14T09:35:00;1.13;;;0.45;;
17504;SDS011;8870;50.950;11.762;2023-03-14T09:51:32;0.20;;;0.20;;
17504;SDS011;8870;50.950;11.762;2023-03-14T09:56:54;0.98;;;0.20;;
17504;SDS011;8870;50.950;11.762;2023-03-14T10:07:51;0.63;;;0.25;;
17504;SDS011;8870;50.950;11.762;2023-03-14T10:13:15;0.45;;;0.20;;
17504;SDS011;8870;50.950;11.762;2023-03-14T10:18:49;0.80;;;0.20;;
17504;SDS011;8870;50.950;11.762;2023-03-14T10:24:18;0.22;;;0.10;;
17504;SDS011;8870;50.950;11.762;2023-03-14T10:29:55;0.20;;;0.10;;
17504;SDS011;8870;50.950;11.762;2023-03-14T10:35:19;0.50;;;0.10;;
17504;SDS011;8870;50.950;11.762;2023-03-14T10:40:52;0.38;;;0.10;;
17504;SDS011;8870;50.950;11.762;2023-03-14T10:46:16;2.20;;;0.20;;
17504;SDS011;8870;50.950;11.762;2023-03-14T10:52:14;0.00;;;0.00;;
17504;SDS011;8870;50.950;11.762;2023-03-14T10:57:58;0.82;;;0.10;;
17504;SDS011;8870;50.950;11.762;2023-03-14T11:09:15;0.27;;;0.20;;
17504;SDS011;8870;50.950;11.762;2023-03-14T11:14:48;0.40;;;0.17;;
17504;SDS011;8870;50.950;11.762;2023-03-14T11:26:13;0.80;;;0.28;;
17504;SDS011;8870;50.950;11.762;2023-03-14T11:31:38;0.95;;;0.20;;
17504;SDS011;8870;50.950;11.762;2023-03-14T13:02:14;0.32;;;0.20;;
17504;SDS011;8870;50.950;11.762;2023-03-14T13:08:03;0.20;;;0.10;;
17504;SDS011;8870;50.950;11.762;2023-03-14T13:13:24;0.40;;;0.20;;
17504;SDS011;8870;50.950;11.762;2023-03-14T13:19:02;0.30;;;0.20;;
17504;SDS011;8870;50.950;11.762;2023-03-14T13:24:29;0.25;;;0.10;;
17504;SDS011;8870;50.950;11.762;2023-03-14T13:30:11;1.65;;;0.10;;
17504;SDS011;8870;50.950;11.762;2023-03-14T13:35:41;0.30;;;0.17;;
17504;SDS011;8870;50.950;11.762;2023-03-14T13:41:15;0.68;;;0.10;;
17504;SDS011;8870;50.950;11.762;2023-03-14T13:46:33;0.45;;;0.13;;
17504;SDS011;8870;50.950;11.762;2023-03-14T13:57:46;0.20;;;0.10;;
17504;SDS011;8870;50.950;11.762;2023-03-14T14:03:19;0.68;;;0.20;;
17504;SDS011;8870;50.950;11.762;2023-03-14T14:08:55;0.88;;;0.17;;
17504;SDS011;8870;50.950;11.762;2023-03-14T14:14:15;0.28;;;0.10;;
17504;SDS011;8870;50.950;11.762;2023-03-14T14:19:53;0.17;;;0.17;;
17504;SDS011;8870;50.950;11.762;2023-03-14T14:25:16;0.43;;;0.10;;
17504;SDS011;8870;50.950;11.762;2023-03-14T14:30:58;0.20;;;0.10;;
17504;SDS011;8870;50.950;11.762;2023-03-14T14:36:23;0.00;;;0.00;;
17504;SDS011;8870;50.950;11.762;2023-03-14T14:41:58;0.15;;;0.05;;
17504;SDS011;8870;50.950;11.762;2023-03-14T14:47:18;0.38;;;0.10;;
17504;SDS011;8870;50.950;11.762;2023-03-14T14:52:55;0.25;;;0.10;;
17504;SDS011;8870;50.950;11.762;2023-03-14T14:58:19;0.57;;;0.10;;
17504;SDS011;8870;50.950;11.762;2023-03-14T15:03:56;4.40;;;0.30;;
17504;SDS011;8870;50.950;11.762;2023-03-14T15:09:16;0.50;;;0.17;;
17504;SDS011;8870;50.950;11.762;2023-03-14T15:14:51;0.45;;;0.20;;
17504;SDS011;8870;50.950;11.762;2023-03-14T15:20:12;2.00;;;0.40;;
17504;SDS011;8870;50.950;11.762;2023-03-14T15:25:49;1.38;;;0.30;;
17504;SDS011;8870;50.950;11.762;2023-03-14T15:31:10;1.13;;;0.28;;
17504;SDS011;8870;50.950;11.762;2023-03-14T15:36:43;0.57;;;0.30;;
17504;SDS011;8870;50.950;11.762;2023-03-14T15:42:01;0.70;;;0.20;;
17504;SDS011;8870;50.950;11.762;2023-03-14T15:47:35;0.20;;;0.20;;
17504;SDS011;8870;50.950;11.762;2023-03-14T15:52:54;0.55;;;0.10;;
17504;SDS011;8870;50.950;11.762;2023-03-14T15:58:25;0.30;;;0.20;;
17504;SDS011;8870;50.950;11.762;2023-03-14T16:03:53;0.43;;;0.20;;
17504;SDS011;8870;50.950;11.762;2023-03-14T16:09:26;0.30;;;0.30;;
17504;SDS011;8870;50.950;11.762;2023-03-14T16:14:46;0.60;;;0.60;;
17504;SDS011;8870;50.950;11.762;2023-03-14T16:20:21;0.40;;;0.40;;
17504;SDS011;8870;50.950;11.762;2023-03-14T16:25:55;0.95;;;0.22;;
17504;SDS011;8870;50.950;11.762;2023-03-14T16:31:27;3.65;;;0.60;;
17504;SDS011;8870;50.950;11.762;2023-03-14T16:36:47;1.30;;;0.40;;
17504;SDS011;8870;50.950;11.762;2023-03-14T16:42:20;1.45;;;0.50;;
17504;SDS011;8870;50.950;11.762;2023-03-14T16:47:40;1.10;;;0.40;;
17504;SDS011;8870;50.950;11.762;2023-03-14T16:53:14;1.40;;;0.65;;
17504;SDS011;8870;50.950;11.762;2023-03-14T16:58:54;2.67;;;0.90;;
17504;SDS011;8870;50.950;11.762;2023-03-14T17:04:33;1.42;;;0.50;;
17504;SDS011;8870;50.950;11.762;2023-03-14T17:10:08;0.50;;;0.40;;
17504;SDS011;8870;50.950;11.762;2023-03-14T17:15:28;1.35;;;0.65;;
17504;SDS011;8870;50.950;11.762;2023-03-14T17:21:00;1.42;;;0.60;;
17504;SDS011;8870;50.950;11.762;2023-03-14T17:26:22;1.05;;;0.57;;
17504;SDS011;8870;50.950;11.762;2023-03-14T17:31:59;3.17;;;0.77;;
17504;SDS011;8870;50.950;11.762;2023-03-14T17:37:25;1.95;;;0.73;;
17504;SDS011;8870;50.950;11.762;2023-03-14T17:48:22;4.40;;;0.85;;
17504;SDS011;8870;50.950;11.762;2023-03-14T17:53:56;5.30;;;1.48;;
17504;SDS011;8870;50.950;11.762;2023-03-14T17:59:22;5.50;;;1.23;;
17504;SDS011;8870;50.950;11.762;2023-03-14T18:27:13;5.72;;;1.83;;
17504;SDS011;8870;50.950;11.762;2023-03-14T18:32:32;5.40;;;1.50;;
17504;SDS011;8870;50.950;11.762;2023-03-14T18:38:14;6.55;;;1.55;;
17504;SDS011;8870;50.950;11.762;2023-03-14T18:43:33;7.38;;;1.48;;
17504;SDS011;8870;50.950;11.762;2023-03-14T18:49:04;5.05;;;1.50;;
17504;SDS011;8870;50.950;11.762;2023-03-14T18:54:25;10.73;;;1.85;;
17504;SDS011;8870;50.950;11.762;2023-03-14T19:00:00;10.83;;;1.90;;
17504;SDS011;8870;50.950;11.762;2023-03-14T19:05:28;12.70;;;2.30;;
17504;SDS011;8870;50.950;11.762;2023-03-14T19:16:26;9.15;;;1.77;;
17504;SDS011;8870;50.950;11.762;2023-03-14T19:21:57;7.30;;;1.80;;
17504;SDS011;8870;50.950;11.762;2023-03-14T19:27:17;7.80;;;1.98;;
17504;SDS011;8870;50.950;11.762;2023-03-14T19:32:49;9.05;;;2.67;;
17504;SDS011;8870;50.950;11.762;2023-03-14T19:38:08;9.93;;;2.03;;
17504;SDS011;8870;50.950;11.762;2023-03-14T19:43:42;8.70;;;1.85;;
17504;SDS011;8870;50.950;11.762;2023-03-14T19:49:02;10.43;;;2.03;;
17504;SDS011;8870;50.950;11.762;2023-03-14T19:54:35;8.63;;;1.92;;
17504;SDS011;8870;50.950;11.762;2023-03-14T19:59:58;7.57;;;1.77;;
17504;SDS011;8870;50.950;11.762;2023-03-14T20:05:32;9.02;;;1.90;;
17504;SDS011;8870;50.950;11.762;2023-03-14T20:10:50;6.10;;;1.80;;
17504;SDS011;8870;50.950;11.762;2023-03-14T20:16:23;8.93;;;1.80;;
17504;SDS011;8870;50.950;11.762;2023-03-14T20:21:42;10.10;;;1.83;;
17504;SDS011;8870;50.950;11.762;2023-03-14T20:27:13;8.73;;;2.10;;
17504;SDS011;8870;50.950;11.762;2023-03-14T20:32:34;10.80;;;2.10;;
17504;SDS011;8870;50.950;11.762;2023-03-14T20:38:07;8.98;;;2.00;;
17504;SDS011;8870;50.950;11.762;2023-03-14T20:43:25;6.22;;;1.70;;
17504;SDS011;8870;50.950;11.762;2023-03-14T20:49:00;7.55;;;2.00;;
17504;SDS011;8870;50.950;11.762;2023-03-14T20:54:20;8.48;;;1.83;;
17504;SDS011;8870;50.950;11.762;2023-03-14T20:59:51;6.97;;;1.77;;
17504;SDS011;8870;50.950;11.762;2023-03-14T21:16:06;6.20;;;1.42;;
17504;SDS011;8870;50.950;11.762;2023-03-14T21:21:40;6.72;;;1.70;;
17504;SDS011;8870;50.950;11.762;2023-03-14T21:27:07;6.50;;;1.50;;
17504;SDS011;8870;50.950;11.762;2023-03-14T21:32:43;6.38;;;1.58;;
17504;SDS011;8870;50.950;11.762;2023-03-14T21:43:39;8.32;;;1.55;;
17504;SDS011;8870;50.950;11.762;2023-03-14T21:49:05;9.82;;;1.88;;
17504;SDS011;8870;50.950;11.762;2023-03-14T21:54:42;5.78;;;1.65;;
17504;SDS011;8870;50.950;11.762;2023-03-14T22:00:01;6.65;;;1.80;;
17504;SDS011;8870;50.950;11.762;2023-03-14T22:05:34;7.32;;;1.77;;
17504;SDS011;8870;50.950;11.762;2023-03-14T22:11:10;7.85;;;2.00;;
17504;SDS011;8870;50.950;11.762;2023-03-14T22:16:28;7.68;;;1.52;;
17504;SDS011;8870;50.950;11.762;2023-03-14T22:21:59;6.25;;;1.58;;
17504;SDS011;8870;50.950;11.762;2023-03-14T22:27:22;5.65;;;1.60;;
17504;SDS011;8870;50.950;11.762;2023-03-14T22:32:53;7.30;;;1.38;;
17504;SDS011;8870;50.950;11.762;2023-03-14T22:38:15;6.85;;;1.48;;
17504;SDS011;8870;50.950;11.762;2023-03-14T22:43:51;7.95;;;1.88;;
17504;SDS011;8870;50.950;11.762;2023-03-14T22:49:25;7.67;;;1.80;;
17504;SDS011;8870;50.950;11.762;2023-03-14T22:54:57;8.50;;;1.77;;
17504;SDS011;8870;50.950;11.762;2023-03-14T23:00:19;6.22;;;1.65;;
17504;SDS011;8870;50.950;11.762;2023-03-14T23:05:52;7.30;;;1.73;;
17504;SDS011;8870;50.950;11.762;2023-03-14T23:22:17;6.45;;;1.80;;
17504;SDS011;8870;50.950;11.762;2023-03-14T23:27:53;7.57;;;1.45;;
17504;SDS011;8870;50.950;11.762;2023-03-14T23:33:20;7.80;;;1.45;;
